createdAt,value
2022-09-13T00:00:14.907Z,19.92
2022-09-13T00:01:14.841Z,19.92
2022-09-13T00:02:35.761Z,19.88
2022-09-13T00:03:14.742Z,19.89
2022-09-13T00:04:14.706Z,19.88
2022-09-13T00:05:14.670Z,19.89
2022-09-13T00:06:14.641Z,19.82
2022-09-13T00:07:14.608Z,19.91
2022-09-13T00:08:35.578Z,19.84
2022-09-13T00:09:14.549Z,19.85
2022-09-13T00:10:14.524Z,19.84
2022-09-13T00:11:14.491Z,19.88
2022-09-13T00:12:14.459Z,19.82
2022-09-13T00:13:14.427Z,19.86
2022-09-13T00:14:35.399Z,19.81
2022-09-13T00:15:14.364Z,19.79
2022-09-13T00:16:14.404Z,19.81
2022-09-13T00:17:14.304Z,19.79
2022-09-13T00:18:14.274Z,19.91
2022-09-13T00:19:14.244Z,19.81
2022-09-13T00:20:35.214Z,19.81
2022-09-13T00:21:14.185Z,19.86
2022-09-13T00:22:14.155Z,19.85
2022-09-13T00:23:14.122Z,19.88
2022-09-13T00:24:14.098Z,19.85
2022-09-13T00:25:14.067Z,19.79
2022-09-13T00:26:35.033Z,19.88
2022-09-13T00:27:14.003Z,19.86
2022-09-13T00:28:13.973Z,19.89
2022-09-13T00:29:13.953Z,19.86
2022-09-13T00:30:13.913Z,19.79
2022-09-13T00:31:13.925Z,19.84
2022-09-13T00:32:34.854Z,19.88
2022-09-13T00:33:13.817Z,19.84
2022-09-13T00:34:13.788Z,19.82
2022-09-13T00:35:13.763Z,19.85
2022-09-13T00:36:13.729Z,19.85
2022-09-13T00:37:13.703Z,19.88
2022-09-13T00:38:34.670Z,19.86
2022-09-13T00:39:13.640Z,19.82
2022-09-13T00:40:13.685Z,19.84
2022-09-13T00:41:13.589Z,19.86
2022-09-13T00:42:13.545Z,19.82
2022-09-13T00:43:13.515Z,19.77
2022-09-13T00:44:34.480Z,19.81
2022-09-13T00:45:13.455Z,19.84
2022-09-13T00:46:13.499Z,19.74
2022-09-13T00:47:13.397Z,19.74
2022-09-13T00:48:13.364Z,19.79
2022-09-13T00:49:13.338Z,19.84
2022-09-13T00:50:34.302Z,19.74
2022-09-13T00:51:13.272Z,19.71
2022-09-13T00:52:13.240Z,19.73
2022-09-13T00:53:13.213Z,19.71
2022-09-13T00:54:13.183Z,19.64
2022-09-13T00:55:13.151Z,19.67
2022-09-13T00:56:34.126Z,19.62
2022-09-13T00:57:13.090Z,19.71
2022-09-13T00:58:13.058Z,19.59
2022-09-13T00:59:13.031Z,19.64
2022-09-13T01:00:13.005Z,19.66
2022-09-13T01:01:13.021Z,19.64
2022-09-13T01:02:33.958Z,19.64
2022-09-13T01:03:12.904Z,19.59
2022-09-13T01:04:13.110Z,19.66
2022-09-13T01:05:12.864Z,19.63
2022-09-13T01:06:12.825Z,19.66
2022-09-13T01:07:12.784Z,19.66
2022-09-13T01:08:33.747Z,19.67
2022-09-13T01:09:12.724Z,19.67
2022-09-13T01:10:12.698Z,19.69
2022-09-13T01:11:12.675Z,19.67
2022-09-13T01:12:12.665Z,19.66
2022-09-13T01:13:12.607Z,19.62
2022-09-13T01:14:33.566Z,19.67
2022-09-13T01:15:12.542Z,19.66
2022-09-13T01:16:12.544Z,19.64
2022-09-13T01:17:12.482Z,19.71
2022-09-13T01:18:12.452Z,19.64
2022-09-13T01:19:12.419Z,19.62
2022-09-13T01:20:33.469Z,19.62
2022-09-13T01:21:12.364Z,19.64
2022-09-13T01:22:12.328Z,19.66
2022-09-13T01:23:12.302Z,19.58
2022-09-13T01:24:12.263Z,19.58
2022-09-13T01:25:12.244Z,19.63
2022-09-13T01:26:33.205Z,19.62
2022-09-13T01:27:12.175Z,19.62
2022-09-13T01:28:12.142Z,19.56
2022-09-13T01:29:12.112Z,19.54
2022-09-13T01:30:12.083Z,19.63
2022-09-13T01:31:12.121Z,19.54
2022-09-13T01:32:33.019Z,19.63
2022-09-13T01:33:12.000Z,19.59
2022-09-13T01:34:11.960Z,19.51
2022-09-13T01:35:11.933Z,19.63
2022-09-13T01:36:11.900Z,19.59
2022-09-13T01:37:11.908Z,19.63
2022-09-13T01:38:32.832Z,19.55
2022-09-13T01:39:11.805Z,19.64
2022-09-13T01:40:11.829Z,19.63
2022-09-13T01:41:11.745Z,19.59
2022-09-13T01:42:11.717Z,19.56
2022-09-13T01:43:11.684Z,19.54
2022-09-13T01:44:32.651Z,19.55
2022-09-13T01:45:11.626Z,19.59
2022-09-13T01:46:11.661Z,19.55
2022-09-13T01:47:11.568Z,19.52
2022-09-13T01:48:11.534Z,19.54
2022-09-13T01:49:11.502Z,19.54
2022-09-13T01:50:32.466Z,19.59
2022-09-13T01:51:11.444Z,19.56
2022-09-13T01:52:11.411Z,19.54
2022-09-13T01:53:11.381Z,19.54
2022-09-13T01:54:11.354Z,19.63
2022-09-13T01:55:11.320Z,19.64
2022-09-13T01:56:32.284Z,19.59
2022-09-13T01:57:11.258Z,19.62
2022-09-13T01:58:11.229Z,19.58
2022-09-13T01:59:11.199Z,19.52
2022-09-13T02:00:11.163Z,19.54
2022-09-13T02:01:11.170Z,19.52
2022-09-13T02:02:32.122Z,19.54
2022-09-13T02:03:11.072Z,19.39
2022-09-13T02:04:11.048Z,19.41
2022-09-13T02:05:11.015Z,19.51
2022-09-13T02:06:10.991Z,19.56
2022-09-13T02:07:10.953Z,19.58
2022-09-13T02:08:31.928Z,19.54
2022-09-13T02:09:10.893Z,19.55
2022-09-13T02:10:10.858Z,19.59
2022-09-13T02:11:10.839Z,19.55
2022-09-13T02:12:10.798Z,19.49
2022-09-13T02:13:10.767Z,19.51
2022-09-13T02:14:31.735Z,19.55
2022-09-13T02:15:10.707Z,19.51
2022-09-13T02:16:10.736Z,19.54
2022-09-13T02:17:10.652Z,19.48
2022-09-13T02:18:10.621Z,19.49
2022-09-13T02:19:10.596Z,19.52
2022-09-13T02:20:31.549Z,19.54
2022-09-13T02:21:10.519Z,19.41
2022-09-13T02:22:10.489Z,19.54
2022-09-13T02:23:10.459Z,19.49
2022-09-13T02:24:10.557Z,19.51
2022-09-13T02:25:10.400Z,19.49
2022-09-13T02:26:31.364Z,19.55
2022-09-13T02:27:10.339Z,19.44
2022-09-13T02:28:10.305Z,19.52
2022-09-13T02:29:10.285Z,19.52
2022-09-13T02:30:10.244Z,19.41
2022-09-13T02:31:10.221Z,19.51
2022-09-13T02:32:31.184Z,19.48
2022-09-13T02:33:10.154Z,19.54
2022-09-13T02:34:10.126Z,19.52
2022-09-13T02:35:10.093Z,19.47
2022-09-13T02:36:10.070Z,19.49
2022-09-13T02:37:10.030Z,19.44
2022-09-13T02:38:31.005Z,19.51
2022-09-13T02:39:09.969Z,19.51
2022-09-13T02:40:10.102Z,19.52
2022-09-13T02:41:09.906Z,19.52
2022-09-13T02:42:12.454Z,19.49
2022-09-13T02:43:09.850Z,19.51
2022-09-13T02:44:30.823Z,19.49
2022-09-13T02:45:09.786Z,19.55
2022-09-13T02:46:09.802Z,19.51
2022-09-13T02:47:09.723Z,19.56
2022-09-13T02:48:09.692Z,19.55
2022-09-13T02:49:09.662Z,19.51
2022-09-13T02:50:30.643Z,19.63
2022-09-13T02:51:09.604Z,19.49
2022-09-13T02:52:09.568Z,19.55
2022-09-13T02:53:09.541Z,19.49
2022-09-13T02:54:09.512Z,19.58
2022-09-13T02:55:09.479Z,19.58
2022-09-13T02:56:30.538Z,19.52
2022-09-13T02:57:09.417Z,19.62
2022-09-13T02:58:09.392Z,19.54
2022-09-13T02:59:09.356Z,19.59
2022-09-13T03:00:09.325Z,19.59
2022-09-13T03:01:09.370Z,19.45
2022-09-13T03:02:30.313Z,19.52
2022-09-13T03:03:09.238Z,19.59
2022-09-13T03:04:09.203Z,19.59
2022-09-13T03:05:09.177Z,19.66
2022-09-13T03:06:09.143Z,19.55
2022-09-13T03:07:09.114Z,19.59
2022-09-13T03:08:30.088Z,19.56
2022-09-13T03:09:09.055Z,19.52
2022-09-13T03:10:09.030Z,19.63
2022-09-13T03:11:08.991Z,19.62
2022-09-13T03:12:08.964Z,19.67
2022-09-13T03:13:08.931Z,19.67
2022-09-13T03:14:29.896Z,19.58
2022-09-13T03:15:08.868Z,19.66
2022-09-13T03:16:08.882Z,19.69
2022-09-13T03:17:08.810Z,19.64
2022-09-13T03:18:08.778Z,19.56
2022-09-13T03:19:08.768Z,19.62
2022-09-13T03:20:29.711Z,19.66
2022-09-13T03:21:08.684Z,19.59
2022-09-13T03:22:08.658Z,19.69
2022-09-13T03:23:08.624Z,19.64
2022-09-13T03:24:08.593Z,19.63
2022-09-13T03:25:08.566Z,19.64
2022-09-13T03:26:29.532Z,19.74
2022-09-13T03:27:08.503Z,19.74
2022-09-13T03:28:08.478Z,19.73
2022-09-13T03:29:08.441Z,19.74
2022-09-13T03:30:08.415Z,19.77
2022-09-13T03:31:08.394Z,19.69
2022-09-13T03:32:29.344Z,19.79
2022-09-13T03:33:08.317Z,19.71
2022-09-13T03:34:08.293Z,19.76
2022-09-13T03:35:08.255Z,19.77
2022-09-13T03:36:08.227Z,19.79
2022-09-13T03:37:08.195Z,19.81
2022-09-13T03:38:29.169Z,19.76
2022-09-13T03:39:10.831Z,19.79
2022-09-13T03:40:08.175Z,19.73
2022-09-13T03:41:08.077Z,19.79
2022-09-13T03:42:08.056Z,19.76
2022-09-13T03:43:08.014Z,19.85
2022-09-13T03:44:29.071Z,19.86
2022-09-13T03:45:07.952Z,19.85
2022-09-13T03:46:07.981Z,19.77
2022-09-13T03:47:07.893Z,19.86
2022-09-13T03:48:07.864Z,19.82
2022-09-13T03:49:07.831Z,19.86
2022-09-13T03:50:28.797Z,19.84
2022-09-13T03:51:07.771Z,19.88
2022-09-13T03:52:07.738Z,19.88
2022-09-13T03:53:07.717Z,19.77
2022-09-13T03:54:07.680Z,19.82
2022-09-13T03:55:07.645Z,19.69
2022-09-13T03:56:28.620Z,19.67
2022-09-13T03:57:07.586Z,19.66
2022-09-13T03:58:07.558Z,19.74
2022-09-13T03:59:07.528Z,19.76
2022-09-13T04:00:07.497Z,19.71
2022-09-13T04:01:07.512Z,19.76
2022-09-13T04:02:28.509Z,19.69
2022-09-13T04:03:07.405Z,19.69
2022-09-13T04:04:07.374Z,19.73
2022-09-13T04:05:07.345Z,19.71
2022-09-13T04:06:07.312Z,19.74
2022-09-13T04:07:07.285Z,19.63
2022-09-13T04:08:28.246Z,19.64
2022-09-13T04:09:07.221Z,19.63
2022-09-13T04:10:09.692Z,19.70
2022-09-13T04:11:07.161Z,19.63
2022-09-13T04:12:07.131Z,19.66
2022-09-13T04:13:07.101Z,19.66
2022-09-13T04:14:28.066Z,19.66
2022-09-13T04:15:07.038Z,19.69
2022-09-13T04:16:07.137Z,19.62
2022-09-13T04:17:06.977Z,19.64
2022-09-13T04:18:06.948Z,19.63
2022-09-13T04:19:06.916Z,19.77
2022-09-13T04:20:27.886Z,19.79
2022-09-13T04:21:06.862Z,19.71
2022-09-13T04:22:06.827Z,19.71
2022-09-13T04:23:06.798Z,19.74
2022-09-13T04:24:06.766Z,19.76
2022-09-13T04:25:06.748Z,19.81
2022-09-13T04:26:27.700Z,19.79
2022-09-13T04:27:06.676Z,19.81
2022-09-13T04:28:06.645Z,19.73
2022-09-13T04:29:06.626Z,19.79
2022-09-13T04:30:06.581Z,19.71
2022-09-13T04:31:06.552Z,19.81
2022-09-13T04:32:27.521Z,19.81
2022-09-13T04:33:06.488Z,19.77
2022-09-13T04:34:06.460Z,19.73
2022-09-13T04:35:06.426Z,19.77
2022-09-13T04:36:06.395Z,19.82
2022-09-13T04:37:06.369Z,19.76
2022-09-13T04:38:27.342Z,19.74
2022-09-13T04:39:06.312Z,19.77
2022-09-13T04:40:06.313Z,19.79
2022-09-13T04:41:06.257Z,19.82
2022-09-13T04:42:06.217Z,19.77
2022-09-13T04:43:06.188Z,19.77
2022-09-13T04:44:27.152Z,19.77
2022-09-13T04:45:06.136Z,19.76
2022-09-13T04:46:06.126Z,19.76
2022-09-13T04:47:06.067Z,19.79
2022-09-13T04:48:06.032Z,19.74
2022-09-13T04:49:06.004Z,19.77
2022-09-13T04:50:26.968Z,19.77
2022-09-13T04:51:05.943Z,19.79
2022-09-13T04:52:05.914Z,19.76
2022-09-13T04:53:05.881Z,19.76
2022-09-13T04:54:05.850Z,19.76
2022-09-13T04:55:05.822Z,19.73
2022-09-13T04:56:26.790Z,19.81
2022-09-13T04:57:05.756Z,19.76
2022-09-13T04:58:05.729Z,19.81
2022-09-13T04:59:05.699Z,19.77
2022-09-13T05:00:05.667Z,19.74
2022-09-13T05:01:05.666Z,19.77
2022-09-13T05:02:26.680Z,19.77
2022-09-13T05:03:05.577Z,19.77
2022-09-13T05:04:05.634Z,19.76
2022-09-13T05:05:05.517Z,19.84
2022-09-13T05:06:05.483Z,19.74
2022-09-13T05:07:05.453Z,19.79
2022-09-13T05:08:26.423Z,19.73
2022-09-13T05:09:05.402Z,19.71
2022-09-13T05:10:05.371Z,19.79
2022-09-13T05:11:05.374Z,19.79
2022-09-13T05:12:05.301Z,19.71
2022-09-13T05:13:05.270Z,19.64
2022-09-13T05:14:26.241Z,19.76
2022-09-13T05:15:05.212Z,19.81
2022-09-13T05:16:05.229Z,19.76
2022-09-13T05:17:05.146Z,19.73
2022-09-13T05:18:05.115Z,19.70
2022-09-13T05:19:05.084Z,19.73
2022-09-13T05:20:26.105Z,19.71
2022-09-13T05:21:05.028Z,19.84
2022-09-13T05:22:04.999Z,19.73
2022-09-13T05:23:04.969Z,19.76
2022-09-13T05:24:04.938Z,19.76
2022-09-13T05:25:04.909Z,19.77
2022-09-13T05:26:25.876Z,19.77
2022-09-13T05:27:04.846Z,19.77
2022-09-13T05:28:04.819Z,19.77
2022-09-13T05:29:04.783Z,19.77
2022-09-13T05:30:04.755Z,19.79
2022-09-13T05:31:04.778Z,19.82
2022-09-13T05:32:25.691Z,19.88
2022-09-13T05:33:04.661Z,19.82
2022-09-13T05:34:04.631Z,19.86
2022-09-13T05:35:04.601Z,19.82
2022-09-13T05:36:04.569Z,19.84
2022-09-13T05:37:04.538Z,19.82
2022-09-13T05:38:25.506Z,19.86
2022-09-13T05:39:29.051Z,19.95
2022-09-13T05:40:12.737Z,19.92
2022-09-13T05:41:04.421Z,19.81
2022-09-13T05:42:04.383Z,19.89
2022-09-13T05:43:04.369Z,19.94
2022-09-13T05:44:25.327Z,19.89
2022-09-13T05:45:04.308Z,19.88
2022-09-13T05:46:04.299Z,19.91
2022-09-13T05:47:04.239Z,19.85
2022-09-13T05:48:04.212Z,19.85
2022-09-13T05:49:04.185Z,19.81
2022-09-13T05:50:54.181Z,19.88
2022-09-13T05:51:04.114Z,19.86
2022-09-13T05:52:04.091Z,19.91
2022-09-13T05:53:04.054Z,19.88
2022-09-13T05:54:04.020Z,19.96
2022-09-13T05:55:03.998Z,19.99
2022-09-13T05:56:24.958Z,20.00
2022-09-13T05:57:03.927Z,19.94
2022-09-13T05:58:03.903Z,20.00
2022-09-13T05:59:03.870Z,20.03
2022-09-13T06:00:03.841Z,20.03
2022-09-13T06:01:03.821Z,20.02
2022-09-13T06:02:24.826Z,20.04
2022-09-13T06:03:03.752Z,20.04
2022-09-13T06:04:03.719Z,20.09
2022-09-13T06:05:03.691Z,20.10
2022-09-13T06:06:03.657Z,20.10
2022-09-13T06:07:03.639Z,20.10
2022-09-13T06:08:24.591Z,20.16
2022-09-13T06:09:03.573Z,20.10
2022-09-13T06:10:03.537Z,20.13
2022-09-13T06:11:03.510Z,20.06
2022-09-13T06:12:03.480Z,20.16
2022-09-13T06:13:03.446Z,20.19
2022-09-13T06:14:24.411Z,20.19
2022-09-13T06:15:03.397Z,20.16
2022-09-13T06:16:03.391Z,20.18
2022-09-13T06:17:03.325Z,20.24
2022-09-13T06:18:03.290Z,20.21
2022-09-13T06:19:03.264Z,20.29
2022-09-13T06:20:24.231Z,20.29
2022-09-13T06:21:03.215Z,20.29
2022-09-13T06:22:03.170Z,20.32
2022-09-13T06:23:03.144Z,20.22
2022-09-13T06:24:03.201Z,20.36
2022-09-13T06:25:03.133Z,20.29
2022-09-13T06:26:24.050Z,20.34
2022-09-13T06:27:03.025Z,20.32
2022-09-13T06:28:03.001Z,20.34
2022-09-13T06:29:02.962Z,20.37
2022-09-13T06:30:02.931Z,20.37
2022-09-13T06:31:02.939Z,20.43
2022-09-13T06:32:23.865Z,20.47
2022-09-13T06:33:02.842Z,20.41
2022-09-13T06:34:02.815Z,20.41
2022-09-13T06:35:02.782Z,20.50
2022-09-13T06:36:02.748Z,20.48
2022-09-13T06:37:02.717Z,20.41
2022-09-13T06:38:23.693Z,20.48
2022-09-13T06:39:02.657Z,20.59
2022-09-13T06:40:02.711Z,20.56
2022-09-13T06:41:02.601Z,20.50
2022-09-13T06:42:02.565Z,20.55
2022-09-13T06:43:02.541Z,20.59
2022-09-13T06:44:23.508Z,20.58
2022-09-13T06:45:02.479Z,20.63
2022-09-13T06:46:02.485Z,20.67
2022-09-13T06:47:02.427Z,20.63
2022-09-13T06:48:02.392Z,20.63
2022-09-13T06:49:02.362Z,20.70
2022-09-13T06:50:23.326Z,20.75
2022-09-13T06:51:02.298Z,20.67
2022-09-13T06:52:02.275Z,20.69
2022-09-13T06:53:02.245Z,20.75
2022-09-13T06:54:02.207Z,20.78
2022-09-13T06:55:02.185Z,20.81
2022-09-13T06:56:23.148Z,20.85
2022-09-13T06:57:02.119Z,20.85
2022-09-13T06:58:02.091Z,20.85
2022-09-13T06:59:02.058Z,20.90
2022-09-13T07:00:02.032Z,20.87
2022-09-13T07:01:02.086Z,20.93
2022-09-13T07:02:22.978Z,21.00
2022-09-13T07:03:01.946Z,21.03
2022-09-13T07:04:01.910Z,20.99
2022-09-13T07:05:01.881Z,21.03
2022-09-13T07:06:01.850Z,20.97
2022-09-13T07:07:01.822Z,20.99
2022-09-13T07:08:22.787Z,21.00
2022-09-13T07:09:01.762Z,21.05
2022-09-13T07:10:01.754Z,21.05
2022-09-13T07:11:01.707Z,21.07
2022-09-13T07:12:01.672Z,21.15
2022-09-13T07:13:01.640Z,21.11
2022-09-13T07:14:22.610Z,21.18
2022-09-13T07:15:01.586Z,21.20
2022-09-13T07:16:01.591Z,21.07
2022-09-13T07:17:01.534Z,21.27
2022-09-13T07:18:01.500Z,21.25
2022-09-13T07:19:01.476Z,21.29
2022-09-13T07:20:22.435Z,21.32
2022-09-13T07:21:01.498Z,21.30
2022-09-13T07:22:01.375Z,21.32
2022-09-13T07:23:01.359Z,21.39
2022-09-13T07:24:01.317Z,21.33
2022-09-13T07:25:01.291Z,21.52
2022-09-13T07:27:01.500Z,21.51
2022-09-13T07:28:01.476Z,21.55
2022-09-13T07:29:01.455Z,21.61
2022-09-13T07:30:01.429Z,21.57
2022-09-13T07:31:01.391Z,21.61
2022-09-13T07:33:46.057Z,21.76
2022-09-13T07:34:45.816Z,21.67
2022-09-13T07:37:15.999Z,21.88
2022-09-13T07:38:15.760Z,21.93
2022-09-13T07:41:04.201Z,22.06
2022-09-13T07:42:04.176Z,22.00
2022-09-13T07:44:10.364Z,22.07
2022-09-13T07:45:10.127Z,22.07
2022-09-13T07:47:15.118Z,22.17
2022-09-13T07:48:15.084Z,22.17
2022-09-13T07:50:22.794Z,22.26
2022-09-13T07:51:22.228Z,22.30
2022-09-13T07:53:57.254Z,22.35
2022-09-13T07:54:53.748Z,22.39
2022-09-13T07:57:03.094Z,22.45
2022-09-13T07:58:02.665Z,22.48
2022-09-13T08:00:20.124Z,22.51
2022-09-13T08:01:19.722Z,22.60
2022-09-13T08:04:07.346Z,22.65
2022-09-13T08:05:06.926Z,22.68
2022-09-13T08:07:39.319Z,22.76
2022-09-13T08:08:38.853Z,22.81
2022-09-13T08:10:48.836Z,22.85
2022-09-13T08:11:44.128Z,22.85
2022-09-13T08:13:50.310Z,22.99
2022-09-13T08:14:49.703Z,22.98
2022-09-13T08:16:55.458Z,23.06
2022-09-13T08:17:55.229Z,23.13
2022-09-13T08:20:00.802Z,23.08
2022-09-13T08:21:00.559Z,23.23
2022-09-13T08:23:20.405Z,23.28
2022-09-13T08:24:20.156Z,23.28
2022-09-13T08:26:39.463Z,23.40
2022-09-13T08:27:39.222Z,23.37
2022-09-13T08:30:37.139Z,23.44
2022-09-13T08:31:36.895Z,23.54
2022-09-13T08:33:46.263Z,23.63
2022-09-13T08:34:42.501Z,23.58
2022-09-13T08:37:15.698Z,23.65
2022-09-13T08:38:15.451Z,23.69
2022-09-13T08:40:08.914Z,23.71
2022-09-13T08:41:08.415Z,23.58
2022-09-13T08:43:52.589Z,23.73
2022-09-13T08:44:52.337Z,23.77
2022-09-13T08:47:00.345Z,23.87
2022-09-13T08:48:00.120Z,23.92
2022-09-13T08:50:30.894Z,23.80
2022-09-13T08:51:30.356Z,23.83
2022-09-13T08:53:35.741Z,23.71
2022-09-13T08:54:35.485Z,23.88
2022-09-13T08:57:48.643Z,23.87
2022-09-13T08:58:48.199Z,23.96
2022-09-13T09:01:18.208Z,23.87
2022-09-13T09:02:18.202Z,23.96
2022-09-13T09:04:52.354Z,23.95
2022-09-13T09:05:52.209Z,24.01
2022-09-13T09:07:57.056Z,24.11
2022-09-13T09:08:56.818Z,24.16
2022-09-13T09:10:51.954Z,24.18
2022-09-13T09:11:51.716Z,24.28
2022-09-13T09:14:52.071Z,24.42
2022-09-13T09:15:52.045Z,24.40
2022-09-13T09:16:52.001Z,24.43
2022-09-13T09:17:51.975Z,24.43
2022-09-13T09:18:51.953Z,24.39
2022-09-13T09:19:51.914Z,24.42
2022-09-13T09:20:52.070Z,24.35
2022-09-13T09:21:51.865Z,24.47
2022-09-13T09:22:51.834Z,24.42
2022-09-13T09:23:51.807Z,24.40
2022-09-13T09:24:51.780Z,24.38
2022-09-13T09:25:51.757Z,24.35
2022-09-13T09:26:51.724Z,24.17
2022-09-13T09:27:51.695Z,24.28
2022-09-13T09:28:51.665Z,24.48
2022-09-13T09:29:51.638Z,24.48
2022-09-13T09:30:51.643Z,24.53
2022-09-13T09:31:51.583Z,24.40
2022-09-13T09:32:51.579Z,24.40
2022-09-13T09:33:51.534Z,24.54
2022-09-13T09:34:51.508Z,24.55
2022-09-13T09:35:51.475Z,24.60
2022-09-13T09:36:51.461Z,24.61
2022-09-13T09:37:51.422Z,24.61
2022-09-13T09:38:51.397Z,24.65
2022-09-13T09:39:51.407Z,24.63
2022-09-13T09:40:51.340Z,24.63
2022-09-13T09:41:51.313Z,24.53
2022-09-13T09:42:51.276Z,24.57
2022-09-13T09:43:51.252Z,24.68
2022-09-13T09:44:51.230Z,24.60
2022-09-13T09:45:51.273Z,24.58
2022-09-13T09:46:51.174Z,24.74
2022-09-13T09:47:51.143Z,24.70
2022-09-13T09:48:51.116Z,24.80
2022-09-13T09:49:51.089Z,24.65
2022-09-13T09:50:51.063Z,24.92
2022-09-13T09:51:51.034Z,24.88
2022-09-13T09:52:51.007Z,25.01
2022-09-13T09:53:50.983Z,24.93
2022-09-13T09:54:50.952Z,24.91
2022-09-13T09:55:50.928Z,24.99
2022-09-13T09:56:50.919Z,25.13
2022-09-13T09:57:50.874Z,25.23
2022-09-13T09:58:50.840Z,25.28
2022-09-13T09:59:50.822Z,25.28
2022-09-13T10:00:50.816Z,25.21
2022-09-13T10:01:50.835Z,25.11
2022-09-13T10:02:50.733Z,25.18
2022-09-13T10:03:50.713Z,24.99
2022-09-13T10:04:50.681Z,24.91
2022-09-13T10:05:50.650Z,25.11
2022-09-13T10:06:50.625Z,25.16
2022-09-13T10:07:50.600Z,25.18
2022-09-13T10:08:50.572Z,25.33
2022-09-13T10:09:50.550Z,25.38
2022-09-13T10:10:50.516Z,25.36
2022-09-13T10:11:50.489Z,25.48
2022-09-13T10:12:50.482Z,25.51
2022-09-13T10:13:50.436Z,25.54
2022-09-13T10:14:50.408Z,25.63
2022-09-13T10:15:50.381Z,25.63
2022-09-13T10:16:50.393Z,25.63
2022-09-13T10:17:50.327Z,25.77
2022-09-13T10:18:50.305Z,25.78
2022-09-13T10:19:57.425Z,25.83
2022-09-13T10:21:54.203Z,25.85
2022-09-13T10:22:54.162Z,25.62
2022-09-13T10:24:58.129Z,25.66
2022-09-13T10:25:58.044Z,25.78
2022-09-13T10:28:01.975Z,26.05
2022-09-13T10:29:01.929Z,26.07
2022-09-13T10:30:54.854Z,26.25
2022-09-13T10:31:54.742Z,26.40
2022-09-13T10:33:58.667Z,26.51
2022-09-13T10:34:58.622Z,26.55
2022-09-13T10:37:02.548Z,26.66
2022-09-13T10:38:02.510Z,26.66
2022-09-13T10:40:06.515Z,26.68
2022-09-13T10:41:06.395Z,26.77
2022-09-13T10:43:10.314Z,26.89
2022-09-13T10:44:10.286Z,26.84
2022-09-13T10:46:14.279Z,26.96
2022-09-13T10:47:14.180Z,26.93
2022-09-13T10:49:18.082Z,27.11
2022-09-13T10:50:18.049Z,27.15
2022-09-13T10:52:21.979Z,27.29
2022-09-13T10:53:21.939Z,27.21
2022-09-13T10:55:25.885Z,27.49
2022-09-13T10:56:25.825Z,27.51
2022-09-13T10:58:29.741Z,27.52
2022-09-13T10:59:29.717Z,27.67
2022-09-13T11:01:22.632Z,27.67
2022-09-13T11:02:22.533Z,27.78
2022-09-13T11:04:26.722Z,27.78
2022-09-13T11:05:26.611Z,28.02
2022-09-13T11:07:30.541Z,28.19
2022-09-13T11:08:30.491Z,28.30
2022-09-13T11:10:34.409Z,28.49
2022-09-13T11:11:34.377Z,28.57
2022-09-13T11:13:40.859Z,28.56
2022-09-13T11:14:38.270Z,28.51
2022-09-13T11:16:42.245Z,28.57
2022-09-13T11:17:42.159Z,28.54
2022-09-13T11:19:46.089Z,28.20
2022-09-13T11:20:46.044Z,28.15
2022-09-13T11:22:49.961Z,28.70
2022-09-13T11:23:50.045Z,28.96
2022-09-13T11:25:53.869Z,29.34
2022-09-13T11:26:53.823Z,29.49
2022-09-13T11:28:57.746Z,29.31
2022-09-13T11:29:57.725Z,29.47
2022-09-13T11:32:01.662Z,29.81
2022-09-13T11:33:01.607Z,30.05
2022-09-13T11:35:05.526Z,30.51
2022-09-13T11:36:05.495Z,30.53
2022-09-13T11:38:09.431Z,30.77
2022-09-13T11:39:09.386Z,30.90
2022-09-13T11:41:02.239Z,31.05
2022-09-13T11:42:02.209Z,31.17
2022-09-13T11:44:06.139Z,31.59
2022-09-13T11:45:06.104Z,31.47
2022-09-13T11:47:10.028Z,30.84
2022-09-13T11:48:09.997Z,30.85
2022-09-13T11:50:13.927Z,30.80
2022-09-13T11:51:13.890Z,30.34
2022-09-13T11:53:17.820Z,30.63
2022-09-13T11:54:17.787Z,30.78
2022-09-13T11:56:21.795Z,30.96
2022-09-13T11:57:21.769Z,31.02
2022-09-13T11:59:25.759Z,31.06
2022-09-13T12:00:25.726Z,31.24
2022-09-13T12:02:29.766Z,31.62
2022-09-13T12:03:29.691Z,31.81
2022-09-13T12:05:33.540Z,31.52
2022-09-13T12:06:33.514Z,31.73
2022-09-13T12:08:37.452Z,32.09
2022-09-13T12:09:37.413Z,31.92
2022-09-13T12:11:30.281Z,31.78
2022-09-13T12:12:30.239Z,31.89
2022-09-13T12:14:34.172Z,32.11
2022-09-13T12:15:34.128Z,32.16
2022-09-13T12:17:38.052Z,32.36
2022-09-13T12:18:38.029Z,32.46
2022-09-13T12:20:30.898Z,32.52
2022-09-13T12:21:30.856Z,32.18
2022-09-13T12:23:34.778Z,32.16
2022-09-13T12:24:34.752Z,32.21
2022-09-13T12:26:38.729Z,32.55
2022-09-13T12:27:40.208Z,32.74
2022-09-13T12:29:42.565Z,33.23
2022-09-13T12:30:42.545Z,33.07
2022-09-13T12:32:46.476Z,32.48
2022-09-13T12:33:46.477Z,32.53
2022-09-13T12:35:50.377Z,32.48
2022-09-13T12:36:50.341Z,32.46
2022-09-13T12:38:54.273Z,32.46
2022-09-13T12:39:54.274Z,32.14
2022-09-13T12:41:58.175Z,32.23
2022-09-13T12:42:58.134Z,32.51
2022-09-13T12:45:02.069Z,32.37
2022-09-13T12:46:02.118Z,32.16
2022-09-13T12:48:05.966Z,32.22
2022-09-13T12:49:05.927Z,32.21
2022-09-13T12:50:58.781Z,32.48
2022-09-13T12:51:58.755Z,32.63
2022-09-13T12:54:02.691Z,32.80
2022-09-13T12:55:02.653Z,32.92
2022-09-13T12:57:06.603Z,32.95
2022-09-13T12:58:06.554Z,32.93
2022-09-13T13:00:10.490Z,32.80
2022-09-13T13:01:10.627Z,32.77
2022-09-13T13:03:14.373Z,33.05
2022-09-13T13:04:14.346Z,33.12
2022-09-13T13:06:18.284Z,33.11
2022-09-13T13:07:18.244Z,33.15
2022-09-13T13:09:25.345Z,33.32
2022-09-13T13:10:22.144Z,33.39
2022-09-13T13:12:26.177Z,33.37
2022-09-13T13:13:26.038Z,33.47
2022-09-13T13:15:29.963Z,33.58
2022-09-13T13:16:29.980Z,33.73
2022-09-13T13:18:33.875Z,33.71
2022-09-13T13:19:33.839Z,33.77
2022-09-13T13:21:26.688Z,33.87
2022-09-13T13:22:26.666Z,33.77
2022-09-13T13:24:30.611Z,33.42
2022-09-13T13:25:30.561Z,33.40
2022-09-13T13:27:34.492Z,33.14
2022-09-13T13:28:34.461Z,33.28
2022-09-13T13:30:38.395Z,33.50
2022-09-13T13:31:38.426Z,33.57
2022-09-13T13:33:42.284Z,33.62
2022-09-13T13:34:42.260Z,33.68
2022-09-13T13:36:46.198Z,33.67
2022-09-13T13:37:46.161Z,33.76
2022-09-13T13:39:50.164Z,33.64
2022-09-13T13:40:50.066Z,33.58
2022-09-13T13:42:54.005Z,33.46
2022-09-13T13:43:53.966Z,33.37
2022-09-13T13:45:57.910Z,32.89
2022-09-13T13:46:57.865Z,33.02
2022-09-13T13:49:01.799Z,33.49
2022-09-13T13:50:01.889Z,33.74
2022-09-13T13:52:05.687Z,34.08
2022-09-13T13:53:05.666Z,34.27
2022-09-13T13:55:09.607Z,34.70
2022-09-13T13:56:09.565Z,34.85
2022-09-13T13:58:13.575Z,34.78
2022-09-13T13:59:13.471Z,34.62
2022-09-13T14:01:06.402Z,34.39
2022-09-13T14:02:06.300Z,34.24
2022-09-13T14:04:10.249Z,33.04
2022-09-13T14:05:10.196Z,33.22
2022-09-13T14:07:20.355Z,32.71
2022-09-13T14:08:14.099Z,32.83
2022-09-13T14:10:18.032Z,32.52
2022-09-13T14:11:17.994Z,32.37
2022-09-13T14:13:21.925Z,32.01
2022-09-13T14:14:21.892Z,32.00
2022-09-13T14:16:29.351Z,32.00
2022-09-13T14:17:25.913Z,31.58
2022-09-13T14:19:29.726Z,31.18
2022-09-13T14:20:29.688Z,31.40
2022-09-13T14:22:33.615Z,31.52
2022-09-13T14:23:33.599Z,31.61
2022-09-13T14:25:37.520Z,31.90
2022-09-13T14:26:37.493Z,32.11
2022-09-13T14:28:41.407Z,32.37
2022-09-13T14:29:41.378Z,32.37
2022-09-13T14:31:47.999Z,32.29
2022-09-13T14:32:45.278Z,32.16
2022-09-13T14:34:49.204Z,32.14
2022-09-13T14:35:49.169Z,32.34
2022-09-13T14:37:53.102Z,32.74
2022-09-13T14:38:55.550Z,32.89
2022-09-13T14:40:45.912Z,33.08
2022-09-13T14:41:45.893Z,33.08
2022-09-13T14:43:49.920Z,32.58
2022-09-13T14:44:49.783Z,31.59
2022-09-13T14:46:53.761Z,31.62
2022-09-13T14:47:53.681Z,31.65
2022-09-13T14:49:57.692Z,31.40
2022-09-13T14:50:57.572Z,30.92
2022-09-13T14:53:01.516Z,30.96
2022-09-13T14:54:01.465Z,31.03
2022-09-13T14:56:05.385Z,30.97
2022-09-13T14:57:05.355Z,30.92
2022-09-13T14:59:09.306Z,30.88
2022-09-13T15:00:09.256Z,30.81
2022-09-13T15:02:13.183Z,30.73
2022-09-13T15:03:13.144Z,30.62
2022-09-13T15:05:17.082Z,30.55
2022-09-13T15:06:17.034Z,30.40
2022-09-13T15:08:24.842Z,29.98
2022-09-13T15:09:20.934Z,29.95
2022-09-13T15:11:13.773Z,29.79
2022-09-13T15:12:13.748Z,29.69
2022-09-13T15:14:17.887Z,29.42
2022-09-13T15:15:17.639Z,29.27
2022-09-13T15:17:21.558Z,28.98
2022-09-13T15:18:21.530Z,28.98